Clarkson, New York
Current Conditions -  °F | °C
As of 2:54 PM on Friday 21 Nov 2014 (Local Time) from KROC Reporting Station
Broken Clouds Broken Clouds  
Wind Chill: 20°   Ceiling: 4000
Heat Index: 29°   Visibility: 10mi
Dew Point: 13°   Wind: 10mph
Humidity: 51%   Direction: 260°W
Pressure: 30.38"   Gusts: NA
Location:  43.23°N, 77.93°W
Report Text: KROC 211954Z 26009KT 10SM SCT028 BKN040 M02/M11 A3038 RMK AO2 SLP300 T10171106
Loading
Personal Weather Stations






























Interactive Weather Map New forecast layout! Learn more

10-Day Weather Forecast

Advertisements
Track Severe Weather on mobile